sensor_id;sensor_type;location;lat;lon;timestamp;temperature;humidity
7206;DHT22;3644;53.480;10.004;2023-10-08T00:00:48;14.60;99.90
7206;DHT22;3644;53.480;10.004;2023-10-08T00:03:21;14.40;99.90
7206;DHT22;3644;53.480;10.004;2023-10-08T00:05:47;14.50;99.90
7206;DHT22;3644;53.480;10.004;2023-10-08T00:08:14;14.30;99.90
7206;DHT22;3644;53.480;10.004;2023-10-08T00:10:42;14.40;99.90
7206;DHT22;3644;53.480;10.004;2023-10-08T00:13:09;14.40;99.90
7206;DHT22;3644;53.480;10.004;2023-10-08T00:15:38;14.60;99.90
7206;DHT22;3644;53.480;10.004;2023-10-08T00:18:09;14.60;99.90
7206;DHT22;3644;53.480;10.004;2023-10-08T00:20:37;14.60;99.90
7206;DHT22;3644;53.480;10.004;2023-10-08T00:23:22;14.60;99.90
7206;DHT22;3644;53.480;10.004;2023-10-08T00:25:53;14.50;99.90
7206;DHT22;3644;53.480;10.004;2023-10-08T00:28:20;14.50;99.90
7206;DHT22;3644;53.480;10.004;2023-10-08T00:30:46;14.70;99.90
7206;DHT22;3644;53.480;10.004;2023-10-08T00:33:13;14.70;99.90
7206;DHT22;3644;53.480;10.004;2023-10-08T00:35:40;14.70;99.90
7206;DHT22;3644;53.480;10.004;2023-10-08T00:38:09;14.60;99.90
7206;DHT22;3644;53.480;10.004;2023-10-08T00:40:41;14.50;99.90
7206;DHT22;3644;53.480;10.004;2023-10-08T00:43:27;14.60;99.90
7206;DHT22;3644;53.480;10.004;2023-10-08T00:45:54;14.20;99.90
7206;DHT22;3644;53.480;10.004;2023-10-08T00:48:19;14.30;99.90
7206;DHT22;3644;53.480;10.004;2023-10-08T00:50:54;14.40;99.90
7206;DHT22;3644;53.480;10.004;2023-10-08T00:53:34;14.50;99.90
7206;DHT22;3644;53.480;10.004;2023-10-08T00:56:04;14.60;99.90
7206;DHT22;3644;53.480;10.004;2023-10-08T00:58:37;14.60;99.90
7206;DHT22;3644;53.480;10.004;2023-10-08T01:01:02;14.30;99.90
7206;DHT22;3644;53.480;10.004;2023-10-08T01:03:28;14.40;99.90
7206;DHT22;3644;53.480;10.004;2023-10-08T01:05:55;14.30;99.90
7206;DHT22;3644;53.480;10.004;2023-10-08T01:08:22;14.50;99.90
7206;DHT22;3644;53.480;10.004;2023-10-08T01:11:23;14.70;99.90
7206;DHT22;3644;53.480;10.004;2023-10-08T01:14:07;14.90;99.90
7206;DHT22;3644;53.480;10.004;2023-10-08T01:16:33;14.70;99.90
7206;DHT22;3644;53.480;10.004;2023-10-08T01:19:01;14.50;99.90
7206;DHT22;3644;53.480;10.004;2023-10-08T01:21:30;14.40;99.90
7206;DHT22;3644;53.480;10.004;2023-10-08T01:24:01;14.40;99.90
7206;DHT22;3644;53.480;10.004;2023-10-08T01:26:27;14.60;99.90
7206;DHT22;3644;53.480;10.004;2023-10-08T01:28:57;14.70;99.90
7206;DHT22;3644;53.480;10.004;2023-10-08T01:31:22;14.70;99.90
7206;DHT22;3644;53.480;10.004;2023-10-08T01:33:48;14.50;99.90
7206;DHT22;3644;53.480;10.004;2023-10-08T01:36:16;14.40;99.90
7206;DHT22;3644;53.480;10.004;2023-10-08T01:38:41;14.60;99.90
7206;DHT22;3644;53.480;10.004;2023-10-08T01:41:08;14.70;99.90
7206;DHT22;3644;53.480;10.004;2023-10-08T01:43:47;14.80;99.90
7206;DHT22;3644;53.480;10.004;2023-10-08T01:46:14;14.60;99.90
7206;DHT22;3644;53.480;10.004;2023-10-08T01:48:41;14.50;99.90
7206;DHT22;3644;53.480;10.004;2023-10-08T01:51:10;14.50;99.90
7206;DHT22;3644;53.480;10.004;2023-10-08T01:53:37;14.60;99.90
7206;DHT22;3644;53.480;10.004;2023-10-08T01:56:04;14.50;99.90
7206;DHT22;3644;53.480;10.004;2023-10-08T01:58:30;14.40;99.90
7206;DHT22;3644;53.480;10.004;2023-10-08T02:00:56;14.40;99.90
7206;DHT22;3644;53.480;10.004;2023-10-08T02:03:25;14.50;99.90
7206;DHT22;3644;53.480;10.004;2023-10-08T02:05:52;14.60;99.90
7206;DHT22;3644;53.480;10.004;2023-10-08T02:08:19;14.60;99.90
7206;DHT22;3644;53.480;10.004;2023-10-08T02:10:45;14.40;99.90
7206;DHT22;3644;53.480;10.004;2023-10-08T02:13:13;14.30;99.90
7206;DHT22;3644;53.480;10.004;2023-10-08T02:15:50;14.60;99.90
7206;DHT22;3644;53.480;10.004;2023-10-08T02:18:19;14.70;99.90
7206;DHT22;3644;53.480;10.004;2023-10-08T02:20:45;14.70;99.90
7206;DHT22;3644;53.480;10.004;2023-10-08T02:23:10;14.60;99.90
7206;DHT22;3644;53.480;10.004;2023-10-08T02:25:39;14.60;99.90
7206;DHT22;3644;53.480;10.004;2023-10-08T02:28:09;14.50;99.90
7206;DHT22;3644;53.480;10.004;2023-10-08T02:30:36;14.60;99.90
7206;DHT22;3644;53.480;10.004;2023-10-08T02:33:07;14.70;99.90
7206;DHT22;3644;53.480;10.004;2023-10-08T02:35:43;14.60;99.90
7206;DHT22;3644;53.480;10.004;2023-10-08T02:38:13;14.70;99.90
7206;DHT22;3644;53.480;10.004;2023-10-08T02:40:41;14.70;99.90
7206;DHT22;3644;53.480;10.004;2023-10-08T02:43:12;14.70;99.90
7206;DHT22;3644;53.480;10.004;2023-10-08T02:45:40;14.50;99.90
7206;DHT22;3644;53.480;10.004;2023-10-08T02:48:07;14.40;99.90
7206;DHT22;3644;53.480;10.004;2023-10-08T02:50:39;14.40;99.90
7206;DHT22;3644;53.480;10.004;2023-10-08T02:53:06;14.50;99.90
7206;DHT22;3644;53.480;10.004;2023-10-08T02:55:39;14.60;99.90
7206;DHT22;3644;53.480;10.004;2023-10-08T02:58:10;14.70;99.90
7206;DHT22;3644;53.480;10.004;2023-10-08T03:00:41;14.70;99.90
7206;DHT22;3644;53.480;10.004;2023-10-08T03:03:06;14.80;99.90
7206;DHT22;3644;53.480;10.004;2023-10-08T03:05:51;14.70;99.90
7206;DHT22;3644;53.480;10.004;2023-10-08T03:08:18;14.90;99.90
7206;DHT22;3644;53.480;10.004;2023-10-08T03:10:50;14.60;99.90
7206;DHT22;3644;53.480;10.004;2023-10-08T03:13:21;14.60;99.90
7206;DHT22;3644;53.480;10.004;2023-10-08T03:15:47;14.50;99.90
7206;DHT22;3644;53.480;10.004;2023-10-08T03:18:29;14.50;99.90
7206;DHT22;3644;53.480;10.004;2023-10-08T03:21:04;14.60;99.90
7206;DHT22;3644;53.480;10.004;2023-10-08T03:23:31;14.70;99.90
7206;DHT22;3644;53.480;10.004;2023-10-08T03:26:02;14.90;99.90
7206;DHT22;3644;53.480;10.004;2023-10-08T03:29:02;14.60;99.90
7206;DHT22;3644;53.480;10.004;2023-10-08T03:31:33;14.60;99.90
7206;DHT22;3644;53.480;10.004;2023-10-08T03:34:14;14.60;99.90
7206;DHT22;3644;53.480;10.004;2023-10-08T03:36:41;14.70;99.90
7206;DHT22;3644;53.480;10.004;2023-10-08T03:39:11;14.50;99.90
7206;DHT22;3644;53.480;10.004;2023-10-08T03:41:40;14.60;99.90
7206;DHT22;3644;53.480;10.004;2023-10-08T03:44:06;14.70;99.90
7206;DHT22;3644;53.480;10.004;2023-10-08T03:46:39;14.80;99.90
7206;DHT22;3644;53.480;10.004;2023-10-08T03:49:06;14.80;99.90
7206;DHT22;3644;53.480;10.004;2023-10-08T03:51:39;14.70;99.90
7206;DHT22;3644;53.480;10.004;2023-10-08T03:54:08;14.70;99.90
7206;DHT22;3644;53.480;10.004;2023-10-08T03:56:44;14.70;99.90
7206;DHT22;3644;53.480;10.004;2023-10-08T03:59:12;14.70;99.90
7206;DHT22;3644;53.480;10.004;2023-10-08T04:01:39;14.70;99.90
7206;DHT22;3644;53.480;10.004;2023-10-08T04:04:06;14.60;99.90
7206;DHT22;3644;53.480;10.004;2023-10-08T04:06:37;14.50;99.90
7206;DHT22;3644;53.480;10.004;2023-10-08T04:09:04;14.40;99.90
7206;DHT22;3644;53.480;10.004;2023-10-08T04:11:49;14.30;99.90
7206;DHT22;3644;53.480;10.004;2023-10-08T04:14:22;14.40;99.90
7206;DHT22;3644;53.480;10.004;2023-10-08T04:16:48;14.50;99.90
7206;DHT22;3644;53.480;10.004;2023-10-08T04:19:20;14.60;99.90
7206;DHT22;3644;53.480;10.004;2023-10-08T04:21:47;14.70;99.90
7206;DHT22;3644;53.480;10.004;2023-10-08T04:24:25;14.60;99.90
7206;DHT22;3644;53.480;10.004;2023-10-08T04:26:59;14.60;99.90
7206;DHT22;3644;53.480;10.004;2023-10-08T04:29:28;14.60;99.90
7206;DHT22;3644;53.480;10.004;2023-10-08T04:31:58;14.60;99.90
7206;DHT22;3644;53.480;10.004;2023-10-08T04:34:30;14.50;99.90
7206;DHT22;3644;53.480;10.004;2023-10-08T04:36:55;14.50;99.90
7206;DHT22;3644;53.480;10.004;2023-10-08T04:39:29;14.70;99.90
7206;DHT22;3644;53.480;10.004;2023-10-08T04:41:58;14.70;99.90
7206;DHT22;3644;53.480;10.004;2023-10-08T04:44:27;14.70;99.90
7206;DHT22;3644;53.480;10.004;2023-10-08T04:46:57;14.60;99.90
7206;DHT22;3644;53.480;10.004;2023-10-08T04:49:29;14.70;99.90
7206;DHT22;3644;53.480;10.004;2023-10-08T04:51:57;14.60;99.90
7206;DHT22;3644;53.480;10.004;2023-10-08T04:54:27;14.50;99.90
7206;DHT22;3644;53.480;10.004;2023-10-08T04:57:00;14.50;99.90
7206;DHT22;3644;53.480;10.004;2023-10-08T04:59:29;14.60;99.90
7206;DHT22;3644;53.480;10.004;2023-10-08T05:02:05;14.60;99.90
7206;DHT22;3644;53.480;10.004;2023-10-08T05:04:52;14.40;99.90
7206;DHT22;3644;53.480;10.004;2023-10-08T05:07:24;14.40;99.90
7206;DHT22;3644;53.480;10.004;2023-10-08T05:09:53;14.40;99.90
7206;DHT22;3644;53.480;10.004;2023-10-08T05:12:34;14.20;99.90
7206;DHT22;3644;53.480;10.004;2023-10-08T05:15:19;14.20;99.90
7206;DHT22;3644;53.480;10.004;2023-10-08T05:17:58;13.80;99.90
7206;DHT22;3644;53.480;10.004;2023-10-08T05:20:35;14.00;99.90
7206;DHT22;3644;53.480;10.004;2023-10-08T05:23:24;14.40;99.90
7206;DHT22;3644;53.480;10.004;2023-10-08T05:25:51;14.40;99.90
7206;DHT22;3644;53.480;10.004;2023-10-08T05:28:34;14.50;99.90
7206;DHT22;3644;53.480;10.004;2023-10-08T05:31:19;14.60;99.90
7206;DHT22;3644;53.480;10.004;2023-10-08T05:34:02;14.70;99.90
7206;DHT22;3644;53.480;10.004;2023-10-08T05:36:53;14.70;99.90
7206;DHT22;3644;53.480;10.004;2023-10-08T05:39:25;14.60;99.90
7206;DHT22;3644;53.480;10.004;2023-10-08T05:41:51;14.60;99.90
7206;DHT22;3644;53.480;10.004;2023-10-08T05:44:17;14.70;99.90
7206;DHT22;3644;53.480;10.004;2023-10-08T05:46:43;14.90;99.90
7206;DHT22;3644;53.480;10.004;2023-10-08T05:49:21;15.00;99.90
7206;DHT22;3644;53.480;10.004;2023-10-08T05:51:56;15.10;99.90
7206;DHT22;3644;53.480;10.004;2023-10-08T05:54:23;14.90;99.90
7206;DHT22;3644;53.480;10.004;2023-10-08T05:56:58;14.90;99.90
7206;DHT22;3644;53.480;10.004;2023-10-08T05:59:44;15.00;99.90
7206;DHT22;3644;53.480;10.004;2023-10-08T06:02:22;14.90;99.90
7206;DHT22;3644;53.480;10.004;2023-10-08T06:05:02;14.90;99.90
7206;DHT22;3644;53.480;10.004;2023-10-08T06:07:41;14.80;99.90
7206;DHT22;3644;53.480;10.004;2023-10-08T06:10:16;14.70;99.90
7206;DHT22;3644;53.480;10.004;2023-10-08T06:13:02;14.70;99.90
7206;DHT22;3644;53.480;10.004;2023-10-08T06:15:57;14.50;99.90
7206;DHT22;3644;53.480;10.004;2023-10-08T06:18:30;14.50;99.90
7206;DHT22;3644;53.480;10.004;2023-10-08T06:21:06;14.50;99.90
7206;DHT22;3644;53.480;10.004;2023-10-08T06:23:40;14.40;99.90
7206;DHT22;3644;53.480;10.004;2023-10-08T06:26:07;14.60;99.90
7206;DHT22;3644;53.480;10.004;2023-10-08T06:28:37;14.50;99.90
7206;DHT22;3644;53.480;10.004;2023-10-08T06:31:04;14.20;99.90
7206;DHT22;3644;53.480;10.004;2023-10-08T06:33:37;14.40;99.90
7206;DHT22;3644;53.480;10.004;2023-10-08T06:36:03;14.30;99.90
7206;DHT22;3644;53.480;10.004;2023-10-08T06:38:39;14.40;99.90
7206;DHT22;3644;53.480;10.004;2023-10-08T06:41:06;14.40;99.90
7206;DHT22;3644;53.480;10.004;2023-10-08T06:43:48;14.40;99.90
7206;DHT22;3644;53.480;10.004;2023-10-08T06:46:16;14.40;99.90
7206;DHT22;3644;53.480;10.004;2023-10-08T06:48:45;14.50;99.90
7206;DHT22;3644;53.480;10.004;2023-10-08T06:51:12;14.50;99.90
7206;DHT22;3644;53.480;10.004;2023-10-08T06:53:45;14.50;99.90
7206;DHT22;3644;53.480;10.004;2023-10-08T06:56:11;14.50;99.90
7206;DHT22;3644;53.480;10.004;2023-10-08T06:58:39;14.60;99.90
7206;DHT22;3644;53.480;10.004;2023-10-08T07:01:05;14.40;99.90
7206;DHT22;3644;53.480;10.004;2023-10-08T07:03:31;14.50;99.90
7206;DHT22;3644;53.480;10.004;2023-10-08T07:05:58;14.40;99.90
7206;DHT22;3644;53.480;10.004;2023-10-08T07:08:26;14.40;99.90
7206;DHT22;3644;53.480;10.004;2023-10-08T07:10:53;14.30;99.90
7206;DHT22;3644;53.480;10.004;2023-10-08T07:13:22;14.30;99.90
7206;DHT22;3644;53.480;10.004;2023-10-08T07:15:52;14.30;99.90
7206;DHT22;3644;53.480;10.004;2023-10-08T07:18:18;14.40;99.90
7206;DHT22;3644;53.480;10.004;2023-10-08T07:20:51;14.50;99.90
7206;DHT22;3644;53.480;10.004;2023-10-08T07:23:23;14.50;99.90
7206;DHT22;3644;53.480;10.004;2023-10-08T07:25:57;14.50;99.90
7206;DHT22;3644;53.480;10.004;2023-10-08T07:28:44;14.60;99.90
7206;DHT22;3644;53.480;10.004;2023-10-08T07:31:15;14.60;99.90
7206;DHT22;3644;53.480;10.004;2023-10-08T07:33:45;14.60;99.90
7206;DHT22;3644;53.480;10.004;2023-10-08T07:36:11;14.40;99.90
7206;DHT22;3644;53.480;10.004;2023-10-08T07:38:38;14.40;99.90
7206;DHT22;3644;53.480;10.004;2023-10-08T07:41:05;14.50;99.90
7206;DHT22;3644;53.480;10.004;2023-10-08T07:43:31;14.10;99.90
7206;DHT22;3644;53.480;10.004;2023-10-08T07:45:58;14.20;99.90
7206;DHT22;3644;53.480;10.004;2023-10-08T07:48:23;14.30;99.90
7206;DHT22;3644;53.480;10.004;2023-10-08T07:50:55;14.40;99.90
7206;DHT22;3644;53.480;10.004;2023-10-08T07:53:22;14.50;99.90
7206;DHT22;3644;53.480;10.004;2023-10-08T07:55:50;14.70;99.90
7206;DHT22;3644;53.480;10.004;2023-10-08T07:58:16;14.50;99.90
7206;DHT22;3644;53.480;10.004;2023-10-08T08:00:43;14.40;99.90
7206;DHT22;3644;53.480;10.004;2023-10-08T08:03:18;14.30;99.90
7206;DHT22;3644;53.480;10.004;2023-10-08T08:05:43;14.30;99.90
7206;DHT22;3644;53.480;10.004;2023-10-08T08:08:09;14.00;99.90
7206;DHT22;3644;53.480;10.004;2023-10-08T08:10:35;14.10;99.90
7206;DHT22;3644;53.480;10.004;2023-10-08T08:13:04;14.20;99.90
7206;DHT22;3644;53.480;10.004;2023-10-08T08:15:34;14.30;99.90
7206;DHT22;3644;53.480;10.004;2023-10-08T08:18:05;14.50;99.90
7206;DHT22;3644;53.480;10.004;2023-10-08T08:20:31;14.70;99.90
7206;DHT22;3644;53.480;10.004;2023-10-08T08:23:00;14.70;99.90
7206;DHT22;3644;53.480;10.004;2023-10-08T08:25:38;14.70;99.90
7206;DHT22;3644;53.480;10.004;2023-10-08T08:28:22;14.60;99.90
7206;DHT22;3644;53.480;10.004;2023-10-08T08:30:53;14.70;99.90
7206;DHT22;3644;53.480;10.004;2023-10-08T08:33:21;14.70;99.90
7206;DHT22;3644;53.480;10.004;2023-10-08T08:35:59;14.70;99.90
7206;DHT22;3644;53.480;10.004;2023-10-08T08:38:26;14.60;99.90
7206;DHT22;3644;53.480;10.004;2023-10-08T08:41:00;14.80;99.90
7206;DHT22;3644;53.480;10.004;2023-10-08T08:43:28;14.70;99.90
7206;DHT22;3644;53.480;10.004;2023-10-08T08:46:00;14.70;99.90
7206;DHT22;3644;53.480;10.004;2023-10-08T08:48:27;14.70;99.90
7206;DHT22;3644;53.480;10.004;2023-10-08T08:50:53;14.90;99.90
7206;DHT22;3644;53.480;10.004;2023-10-08T08:53:19;14.80;99.90
7206;DHT22;3644;53.480;10.004;2023-10-08T08:55:49;14.80;99.90
7206;DHT22;3644;53.480;10.004;2023-10-08T08:58:14;14.80;99.90
7206;DHT22;3644;53.480;10.004;2023-10-08T09:00:42;14.70;99.90
7206;DHT22;3644;53.480;10.004;2023-10-08T09:03:11;14.70;99.90
7206;DHT22;3644;53.480;10.004;2023-10-08T09:05:38;14.70;99.90
7206;DHT22;3644;53.480;10.004;2023-10-08T09:08:06;14.70;99.90
7206;DHT22;3644;53.480;10.004;2023-10-08T09:10:33;14.90;99.90
7206;DHT22;3644;53.480;10.004;2023-10-08T09:13:05;14.90;99.90
7206;DHT22;3644;53.480;10.004;2023-10-08T09:15:32;14.90;99.90
7206;DHT22;3644;53.480;10.004;2023-10-08T09:17:59;15.10;99.90
7206;DHT22;3644;53.480;10.004;2023-10-08T09:20:28;15.00;99.90
7206;DHT22;3644;53.480;10.004;2023-10-08T09:23:17;15.30;99.90
7206;DHT22;3644;53.480;10.004;2023-10-08T09:25:46;15.20;99.90
7206;DHT22;3644;53.480;10.004;2023-10-08T09:28:15;15.40;99.90
7206;DHT22;3644;53.480;10.004;2023-10-08T09:30:42;15.40;99.90
7206;DHT22;3644;53.480;10.004;2023-10-08T09:33:11;15.30;99.90
7206;DHT22;3644;53.480;10.004;2023-10-08T09:35:38;15.30;99.90
7206;DHT22;3644;53.480;10.004;2023-10-08T09:38:04;15.40;99.90
7206;DHT22;3644;53.480;10.004;2023-10-08T09:40:30;15.30;99.90
7206;DHT22;3644;53.480;10.004;2023-10-08T09:42:56;15.40;99.90
7206;DHT22;3644;53.480;10.004;2023-10-08T09:45:23;15.60;99.90
7206;DHT22;3644;53.480;10.004;2023-10-08T09:47:55;15.40;99.90
7206;DHT22;3644;53.480;10.004;2023-10-08T09:50:28;15.60;99.90
7206;DHT22;3644;53.480;10.004;2023-10-08T09:53:01;15.70;99.90
7206;DHT22;3644;53.480;10.004;2023-10-08T09:55:30;15.70;99.90
7206;DHT22;3644;53.480;10.004;2023-10-08T09:57:55;15.60;99.90
7206;DHT22;3644;53.480;10.004;2023-10-08T10:00:23;15.80;99.90
7206;DHT22;3644;53.480;10.004;2023-10-08T10:03:01;15.70;99.90
7206;DHT22;3644;53.480;10.004;2023-10-08T10:05:32;15.50;99.90
7206;DHT22;3644;53.480;10.004;2023-10-08T10:07:59;15.40;99.90
7206;DHT22;3644;53.480;10.004;2023-10-08T10:10:29;15.60;99.90
7206;DHT22;3644;53.480;10.004;2023-10-08T10:12:59;15.60;99.90
7206;DHT22;3644;53.480;10.004;2023-10-08T10:15:25;15.80;99.90
7206;DHT22;3644;53.480;10.004;2023-10-08T10:17:51;15.90;99.90
7206;DHT22;3644;53.480;10.004;2023-10-08T10:20:16;15.80;99.90
7206;DHT22;3644;53.480;10.004;2023-10-08T10:22:43;15.80;99.90
7206;DHT22;3644;53.480;10.004;2023-10-08T10:25:10;16.10;99.90
7206;DHT22;3644;53.480;10.004;2023-10-08T10:30:21;16.30;99.90
7206;DHT22;3644;53.480;10.004;2023-10-08T10:32:51;16.30;99.90
7206;DHT22;3644;53.480;10.004;2023-10-08T10:35:17;16.20;99.90
7206;DHT22;3644;53.480;10.004;2023-10-08T10:37:45;16.30;99.90
7206;DHT22;3644;53.480;10.004;2023-10-08T10:40:20;16.30;99.90
7206;DHT22;3644;53.480;10.004;2023-10-08T10:42:56;16.40;99.90
7206;DHT22;3644;53.480;10.004;2023-10-08T10:45:21;16.60;99.90
7206;DHT22;3644;53.480;10.004;2023-10-08T10:48:05;16.60;99.90
7206;DHT22;3644;53.480;10.004;2023-10-08T10:50:40;16.20;99.90
7206;DHT22;3644;53.480;10.004;2023-10-08T10:53:25;16.50;99.90
7206;DHT22;3644;53.480;10.004;2023-10-08T10:55:52;16.70;99.90
7206;DHT22;3644;53.480;10.004;2023-10-08T10:58:25;16.80;99.90
7206;DHT22;3644;53.480;10.004;2023-10-08T11:00:53;16.70;99.90
7206;DHT22;3644;53.480;10.004;2023-10-08T11:03:31;16.50;99.90
7206;DHT22;3644;53.480;10.004;2023-10-08T11:06:00;16.80;99.90
7206;DHT22;3644;53.480;10.004;2023-10-08T11:08:31;17.00;99.90
7206;DHT22;3644;53.480;10.004;2023-10-08T11:11:00;17.10;99.90
7206;DHT22;3644;53.480;10.004;2023-10-08T11:13:32;17.40;99.90
7206;DHT22;3644;53.480;10.004;2023-10-08T11:16:04;17.60;99.90
7206;DHT22;3644;53.480;10.004;2023-10-08T11:18:30;17.70;99.90
7206;DHT22;3644;53.480;10.004;2023-10-08T11:21:10;18.00;99.90
7206;DHT22;3644;53.480;10.004;2023-10-08T11:23:45;18.00;99.90
7206;DHT22;3644;53.480;10.004;2023-10-08T11:26:25;18.10;99.90
7206;DHT22;3644;53.480;10.004;2023-10-08T11:29:05;18.30;99.90
7206;DHT22;3644;53.480;10.004;2023-10-08T11:31:32;18.30;99.90
7206;DHT22;3644;53.480;10.004;2023-10-08T11:34:03;18.40;99.90
7206;DHT22;3644;53.480;10.004;2023-10-08T11:36:36;18.50;99.90
7206;DHT22;3644;53.480;10.004;2023-10-08T11:39:14;18.40;99.90
7206;DHT22;3644;53.480;10.004;2023-10-08T11:41:55;18.20;99.90
7206;DHT22;3644;53.480;10.004;2023-10-08T11:44:21;18.40;99.90
7206;DHT22;3644;53.480;10.004;2023-10-08T11:46:49;18.60;99.90
7206;DHT22;3644;53.480;10.004;2023-10-08T11:49:18;18.80;99.90
7206;DHT22;3644;53.480;10.004;2023-10-08T11:51:45;19.00;99.90
7206;DHT22;3644;53.480;10.004;2023-10-08T11:54:11;19.00;99.90
7206;DHT22;3644;53.480;10.004;2023-10-08T11:56:38;19.00;99.90
7206;DHT22;3644;53.480;10.004;2023-10-08T11:59:04;18.90;99.90
7206;DHT22;3644;53.480;10.004;2023-10-08T12:01:37;18.90;99.90
7206;DHT22;3644;53.480;10.004;2023-10-08T12:04:07;19.00;99.90
7206;DHT22;3644;53.480;10.004;2023-10-08T12:06:41;19.00;99.90
7206;DHT22;3644;53.480;10.004;2023-10-08T12:09:12;19.10;99.90
7206;DHT22;3644;53.480;10.004;2023-10-08T12:11:38;19.00;99.90
7206;DHT22;3644;53.480;10.004;2023-10-08T12:14:05;19.00;99.90
7206;DHT22;3644;53.480;10.004;2023-10-08T12:16:31;19.10;99.90
7206;DHT22;3644;53.480;10.004;2023-10-08T12:19:01;19.10;99.90
7206;DHT22;3644;53.480;10.004;2023-10-08T12:21:27;19.20;99.90
7206;DHT22;3644;53.480;10.004;2023-10-08T12:23:59;19.30;99.90
7206;DHT22;3644;53.480;10.004;2023-10-08T12:26:24;19.30;99.90
7206;DHT22;3644;53.480;10.004;2023-10-08T12:28:50;19.30;99.90
7206;DHT22;3644;53.480;10.004;2023-10-08T12:31:17;19.30;99.90
7206;DHT22;3644;53.480;10.004;2023-10-08T12:33:47;19.20;99.90
7206;DHT22;3644;53.480;10.004;2023-10-08T12:36:13;19.20;99.90
7206;DHT22;3644;53.480;10.004;2023-10-08T12:38:40;19.20;99.90
7206;DHT22;3644;53.480;10.004;2023-10-08T12:41:07;19.10;99.90
7206;DHT22;3644;53.480;10.004;2023-10-08T12:43:41;19.10;99.90
7206;DHT22;3644;53.480;10.004;2023-10-08T12:46:18;19.00;99.90
7206;DHT22;3644;53.480;10.004;2023-10-08T12:48:44;18.90;99.90
7206;DHT22;3644;53.480;10.004;2023-10-08T12:51:13;19.00;99.90
7206;DHT22;3644;53.480;10.004;2023-10-08T12:53:39;19.00;99.90
7206;DHT22;3644;53.480;10.004;2023-10-08T12:56:09;19.10;99.90
7206;DHT22;3644;53.480;10.004;2023-10-08T12:58:42;19.00;99.90
7206;DHT22;3644;53.480;10.004;2023-10-08T13:01:13;19.10;99.90
7206;DHT22;3644;53.480;10.004;2023-10-08T13:03:40;19.20;99.90
7206;DHT22;3644;53.480;10.004;2023-10-08T13:06:16;19.30;99.90
7206;DHT22;3644;53.480;10.004;2023-10-08T13:08:54;19.40;99.90
7206;DHT22;3644;53.480;10.004;2023-10-08T13:11:20;19.40;99.90
7206;DHT22;3644;53.480;10.004;2023-10-08T13:13:53;19.40;99.90
7206;DHT22;3644;53.480;10.004;2023-10-08T13:16:22;19.30;99.90
7206;DHT22;3644;53.480;10.004;2023-10-08T13:18:49;19.30;99.90
7206;DHT22;3644;53.480;10.004;2023-10-08T13:21:15;19.30;99.90
7206;DHT22;3644;53.480;10.004;2023-10-08T13:23:41;19.30;99.90
7206;DHT22;3644;53.480;10.004;2023-10-08T13:26:07;19.40;99.90
7206;DHT22;3644;53.480;10.004;2023-10-08T13:28:36;19.40;99.90
7206;DHT22;3644;53.480;10.004;2023-10-08T13:31:05;19.30;99.90
7206;DHT22;3644;53.480;10.004;2023-10-08T13:33:41;19.30;99.90
7206;DHT22;3644;53.480;10.004;2023-10-08T13:36:14;19.40;99.90
7206;DHT22;3644;53.480;10.004;2023-10-08T13:38:40;19.30;99.90
7206;DHT22;3644;53.480;10.004;2023-10-08T13:41:10;19.30;99.90
7206;DHT22;3644;53.480;10.004;2023-10-08T13:43:48;19.30;99.90
7206;DHT22;3644;53.480;10.004;2023-10-08T13:46:16;19.20;99.90
7206;DHT22;3644;53.480;10.004;2023-10-08T13:48:44;19.20;99.90
7206;DHT22;3644;53.480;10.004;2023-10-08T13:51:14;19.20;99.90
7206;DHT22;3644;53.480;10.004;2023-10-08T13:53:41;19.10;99.90
7206;DHT22;3644;53.480;10.004;2023-10-08T13:56:10;19.20;99.90
7206;DHT22;3644;53.480;10.004;2023-10-08T13:58:37;19.20;99.90
7206;DHT22;3644;53.480;10.004;2023-10-08T14:01:07;19.10;99.90
7206;DHT22;3644;53.480;10.004;2023-10-08T14:03:50;19.10;99.90
7206;DHT22;3644;53.480;10.004;2023-10-08T14:06:21;19.20;99.90
7206;DHT22;3644;53.480;10.004;2023-10-08T14:08:47;19.20;99.90
7206;DHT22;3644;53.480;10.004;2023-10-08T14:11:20;19.30;99.90
7206;DHT22;3644;53.480;10.004;2023-10-08T14:13:50;19.30;99.90
7206;DHT22;3644;53.480;10.004;2023-10-08T14:16:17;19.30;99.90
7206;DHT22;3644;53.480;10.004;2023-10-08T14:18:43;19.20;99.90
7206;DHT22;3644;53.480;10.004;2023-10-08T14:21:16;19.00;99.90
7206;DHT22;3644;53.480;10.004;2023-10-08T14:23:43;19.00;99.90
7206;DHT22;3644;53.480;10.004;2023-10-08T14:26:10;19.00;99.90
7206;DHT22;3644;53.480;10.004;2023-10-08T14:28:36;19.00;99.90
7206;DHT22;3644;53.480;10.004;2023-10-08T14:31:16;19.00;99.90
7206;DHT22;3644;53.480;10.004;2023-10-08T14:33:44;18.90;99.90
7206;DHT22;3644;53.480;10.004;2023-10-08T14:36:23;19.00;99.90
7206;DHT22;3644;53.480;10.004;2023-10-08T14:39:07;18.90;99.90
7206;DHT22;3644;53.480;10.004;2023-10-08T14:41:51;18.80;99.90
7206;DHT22;3644;53.480;10.004;2023-10-08T14:44:35;18.80;99.90
7206;DHT22;3644;53.480;10.004;2023-10-08T14:47:03;18.70;99.90
7206;DHT22;3644;53.480;10.004;2023-10-08T14:49:29;18.70;99.90
7206;DHT22;3644;53.480;10.004;2023-10-08T14:51:55;18.60;99.90
7206;DHT22;3644;53.480;10.004;2023-10-08T14:54:20;18.60;99.90
7206;DHT22;3644;53.480;10.004;2023-10-08T14:56:46;18.60;99.90
7206;DHT22;3644;53.480;10.004;2023-10-08T14:59:12;18.50;99.90
7206;DHT22;3644;53.480;10.004;2023-10-08T15:01:38;18.60;99.90
7206;DHT22;3644;53.480;10.004;2023-10-08T15:04:04;18.60;99.90
7206;DHT22;3644;53.480;10.004;2023-10-08T15:06:31;18.50;99.90
7206;DHT22;3644;53.480;10.004;2023-10-08T15:08:57;18.30;99.90
7206;DHT22;3644;53.480;10.004;2023-10-08T15:11:23;18.10;99.90
7206;DHT22;3644;53.480;10.004;2023-10-08T15:13:50;18.20;99.90
7206;DHT22;3644;53.480;10.004;2023-10-08T15:16:19;18.10;99.90
7206;DHT22;3644;53.480;10.004;2023-10-08T15:18:48;18.10;99.90
7206;DHT22;3644;53.480;10.004;2023-10-08T15:21:14;18.10;99.90
7206;DHT22;3644;53.480;10.004;2023-10-08T15:23:40;18.00;99.90
7206;DHT22;3644;53.480;10.004;2023-10-08T15:26:06;18.00;99.90
7206;DHT22;3644;53.480;10.004;2023-10-08T15:28:32;18.10;99.90
7206;DHT22;3644;53.480;10.004;2023-10-08T15:30:58;18.10;99.90
7206;DHT22;3644;53.480;10.004;2023-10-08T15:33:24;18.00;99.90
7206;DHT22;3644;53.480;10.004;2023-10-08T15:35:52;18.00;99.90
7206;DHT22;3644;53.480;10.004;2023-10-08T15:38:17;17.80;99.90
7206;DHT22;3644;53.480;10.004;2023-10-08T15:40:43;17.70;99.90
7206;DHT22;3644;53.480;10.004;2023-10-08T15:43:09;17.80;99.90
7206;DHT22;3644;53.480;10.004;2023-10-08T15:45:36;17.80;99.90
7206;DHT22;3644;53.480;10.004;2023-10-08T15:48:02;17.90;99.90
7206;DHT22;3644;53.480;10.004;2023-10-08T15:50:30;17.80;99.90
7206;DHT22;3644;53.480;10.004;2023-10-08T15:52:58;17.70;99.90
7206;DHT22;3644;53.480;10.004;2023-10-08T15:55:24;17.50;99.90
7206;DHT22;3644;53.480;10.004;2023-10-08T15:57:51;17.70;99.90
7206;DHT22;3644;53.480;10.004;2023-10-08T16:00:17;17.70;99.90
7206;DHT22;3644;53.480;10.004;2023-10-08T16:02:43;17.60;99.90
7206;DHT22;3644;53.480;10.004;2023-10-08T16:05:11;17.60;99.90
7206;DHT22;3644;53.480;10.004;2023-10-08T16:07:36;17.60;99.90